sensor_id;sensor_type;location;lat;lon;timestamp;P1;durP1;ratioP1;P2;durP2;ratioP2
31282;SDS011;17915;52.540;13.604;2023-03-01T00:01:04;13.50;;;8.07;;
31282;SDS011;17915;52.540;13.604;2023-03-01T00:03:31;7.93;;;5.13;;
31282;SDS011;17915;52.540;13.604;2023-03-01T00:05:57;10.45;;;6.10;;
31282;SDS011;17915;52.540;13.604;2023-03-01T00:08:22;17.20;;;8.07;;
31282;SDS011;17915;52.540;13.604;2023-03-01T00:10:48;11.15;;;7.22;;
31282;SDS011;17915;52.540;13.604;2023-03-01T00:13:13;11.53;;;7.43;;
31282;SDS011;17915;52.540;13.604;2023-03-01T00:15:39;12.53;;;7.07;;
31282;SDS011;17915;52.540;13.604;2023-03-01T00:18:06;12.32;;;6.65;;
31282;SDS011;17915;52.540;13.604;2023-03-01T00:20:32;10.15;;;8.00;;
31282;SDS011;17915;52.540;13.604;2023-03-01T00:22:57;10.23;;;5.50;;
31282;SDS011;17915;52.540;13.604;2023-03-01T00:25:23;13.80;;;6.83;;
31282;SDS011;17915;52.540;13.604;2023-03-01T00:27:48;10.30;;;7.03;;
31282;SDS011;17915;52.540;13.604;2023-03-01T00:30:14;11.40;;;7.97;;
31282;SDS011;17915;52.540;13.604;2023-03-01T00:32:40;11.05;;;7.43;;
31282;SDS011;17915;52.540;13.604;2023-03-01T00:35:05;12.80;;;6.90;;
31282;SDS011;17915;52.540;13.604;2023-03-01T00:37:31;18.47;;;8.37;;
31282;SDS011;17915;52.540;13.604;2023-03-01T00:39:56;13.87;;;7.63;;
31282;SDS011;17915;52.540;13.604;2023-03-01T00:42:21;15.37;;;5.83;;
31282;SDS011;17915;52.540;13.604;2023-03-01T00:44:47;12.77;;;6.53;;
31282;SDS011;17915;52.540;13.604;2023-03-01T00:47:12;12.37;;;7.03;;
31282;SDS011;17915;52.540;13.604;2023-03-01T00:49:39;16.58;;;7.82;;
31282;SDS011;17915;52.540;13.604;2023-03-01T00:52:04;11.38;;;7.28;;
31282;SDS011;17915;52.540;13.604;2023-03-01T00:54:30;10.83;;;6.97;;
31282;SDS011;17915;52.540;13.604;2023-03-01T00:56:55;15.03;;;8.13;;
31282;SDS011;17915;52.540;13.604;2023-03-01T00:59:20;15.13;;;8.67;;
31282;SDS011;17915;52.540;13.604;2023-03-01T01:01:46;13.77;;;6.73;;
31282;SDS011;17915;52.540;13.604;2023-03-01T01:04:12;18.17;;;7.63;;
31282;SDS011;17915;52.540;13.604;2023-03-01T01:06:39;13.55;;;6.55;;
31282;SDS011;17915;52.540;13.604;2023-03-01T01:09:15;13.98;;;6.18;;
31282;SDS011;17915;52.540;13.604;2023-03-01T01:11:46;15.65;;;7.40;;
31282;SDS011;17915;52.540;13.604;2023-03-01T01:14:12;16.15;;;6.93;;
31282;SDS011;17915;52.540;13.604;2023-03-01T01:16:38;17.23;;;8.13;;
31282;SDS011;17915;52.540;13.604;2023-03-01T01:19:03;11.20;;;4.97;;
31282;SDS011;17915;52.540;13.604;2023-03-01T01:21:29;10.13;;;5.53;;
31282;SDS011;17915;52.540;13.604;2023-03-01T01:23:54;15.17;;;6.80;;
31282;SDS011;17915;52.540;13.604;2023-03-01T01:26:21;16.58;;;8.40;;
31282;SDS011;17915;52.540;13.604;2023-03-01T01:28:48;10.65;;;5.32;;
31282;SDS011;17915;52.540;13.604;2023-03-01T01:31:14;10.25;;;6.13;;
31282;SDS011;17915;52.540;13.604;2023-03-01T01:33:39;9.60;;;6.10;;
31282;SDS011;17915;52.540;13.604;2023-03-01T01:36:05;10.67;;;6.80;;
31282;SDS011;17915;52.540;13.604;2023-03-01T01:38:31;12.30;;;6.20;;
31282;SDS011;17915;52.540;13.604;2023-03-01T01:40:57;7.88;;;5.00;;
31282;SDS011;17915;52.540;13.604;2023-03-01T01:45:50;11.40;;;5.63;;
31282;SDS011;17915;52.540;13.604;2023-03-01T01:48:20;13.50;;;6.40;;
31282;SDS011;17915;52.540;13.604;2023-03-01T01:50:50;11.52;;;5.60;;
31282;SDS011;17915;52.540;13.604;2023-03-01T01:53:19;10.70;;;6.22;;
31282;SDS011;17915;52.540;13.604;2023-03-01T01:55:47;6.70;;;5.22;;
31282;SDS011;17915;52.540;13.604;2023-03-01T01:58:16;8.68;;;6.38;;
31282;SDS011;17915;52.540;13.604;2023-03-01T02:00:43;10.93;;;6.95;;
31282;SDS011;17915;52.540;13.604;2023-03-01T02:03:13;12.93;;;7.07;;
31282;SDS011;17915;52.540;13.604;2023-03-01T02:08:22;16.45;;;6.18;;
31282;SDS011;17915;52.540;13.604;2023-03-01T02:10:49;12.40;;;7.00;;
31282;SDS011;17915;52.540;13.604;2023-03-01T02:13:15;11.13;;;6.00;;
31282;SDS011;17915;52.540;13.604;2023-03-01T02:15:41;12.17;;;5.80;;
31282;SDS011;17915;52.540;13.604;2023-03-01T02:18:08;17.70;;;6.15;;
31282;SDS011;17915;52.540;13.604;2023-03-01T02:23:12;8.55;;;5.72;;
31282;SDS011;17915;52.540;13.604;2023-03-01T02:30:36;9.27;;;5.93;;
31282;SDS011;17915;52.540;13.604;2023-03-01T02:33:02;8.20;;;6.13;;
31282;SDS011;17915;52.540;13.604;2023-03-01T02:35:35;12.77;;;6.40;;
31282;SDS011;17915;52.540;13.604;2023-03-01T02:38:02;8.82;;;5.60;;
31282;SDS011;17915;52.540;13.604;2023-03-01T02:40:29;11.88;;;6.72;;
31282;SDS011;17915;52.540;13.604;2023-03-01T02:42:56;11.32;;;6.57;;
31282;SDS011;17915;52.540;13.604;2023-03-01T02:45:23;17.63;;;7.15;;
31282;SDS011;17915;52.540;13.604;2023-03-01T02:47:49;11.65;;;7.15;;
31282;SDS011;17915;52.540;13.604;2023-03-01T02:52:57;10.98;;;6.13;;
31282;SDS011;17915;52.540;13.604;2023-03-01T02:56:00;13.13;;;6.53;;
31282;SDS011;17915;52.540;13.604;2023-03-01T02:58:26;12.57;;;7.32;;
31282;SDS011;17915;52.540;13.604;2023-03-01T03:00:52;12.33;;;6.70;;
31282;SDS011;17915;52.540;13.604;2023-03-01T03:03:17;10.60;;;6.20;;
31282;SDS011;17915;52.540;13.604;2023-03-01T03:05:44;10.90;;;6.30;;
31282;SDS011;17915;52.540;13.604;2023-03-01T03:08:10;12.55;;;5.30;;
31282;SDS011;17915;52.540;13.604;2023-03-01T03:10:37;10.65;;;6.60;;
31282;SDS011;17915;52.540;13.604;2023-03-01T03:13:11;5.78;;;5.13;;
31282;SDS011;17915;52.540;13.604;2023-03-01T03:15:38;8.23;;;5.18;;
31282;SDS011;17915;52.540;13.604;2023-03-01T03:20:31;9.15;;;5.88;;
31282;SDS011;17915;52.540;13.604;2023-03-01T03:22:57;10.02;;;5.95;;
31282;SDS011;17915;52.540;13.604;2023-03-01T03:25:26;12.00;;;8.35;;
31282;SDS011;17915;52.540;13.604;2023-03-01T03:27:52;16.00;;;7.15;;
31282;SDS011;17915;52.540;13.604;2023-03-01T03:30:28;11.45;;;6.55;;
31282;SDS011;17915;52.540;13.604;2023-03-01T03:32:56;11.40;;;6.18;;
31282;SDS011;17915;52.540;13.604;2023-03-01T03:35:24;13.27;;;7.38;;
31282;SDS011;17915;52.540;13.604;2023-03-01T03:37:49;11.75;;;7.28;;
31282;SDS011;17915;52.540;13.604;2023-03-01T03:40:31;10.80;;;7.40;;
31282;SDS011;17915;52.540;13.604;2023-03-01T03:43:08;10.30;;;6.20;;
31282;SDS011;17915;52.540;13.604;2023-03-01T03:45:37;12.18;;;6.78;;
31282;SDS011;17915;52.540;13.604;2023-03-01T03:48:03;16.05;;;7.50;;
31282;SDS011;17915;52.540;13.604;2023-03-01T03:50:30;21.23;;;9.38;;
31282;SDS011;17915;52.540;13.604;2023-03-01T03:52:55;11.60;;;7.10;;
31282;SDS011;17915;52.540;13.604;2023-03-01T03:55:21;14.43;;;6.33;;
31282;SDS011;17915;52.540;13.604;2023-03-01T03:57:47;13.43;;;6.60;;
31282;SDS011;17915;52.540;13.604;2023-03-01T04:00:17;13.00;;;7.18;;
31282;SDS011;17915;52.540;13.604;2023-03-01T04:02:44;13.02;;;7.65;;
31282;SDS011;17915;52.540;13.604;2023-03-01T04:05:11;9.20;;;7.60;;
31282;SDS011;17915;52.540;13.604;2023-03-01T04:07:39;20.08;;;8.57;;
31282;SDS011;17915;52.540;13.604;2023-03-01T04:10:05;11.07;;;7.28;;
31282;SDS011;17915;52.540;13.604;2023-03-01T04:12:33;21.75;;;7.50;;
31282;SDS011;17915;52.540;13.604;2023-03-01T04:15:00;12.20;;;7.05;;
31282;SDS011;17915;52.540;13.604;2023-03-01T04:17:25;12.57;;;8.95;;
31282;SDS011;17915;52.540;13.604;2023-03-01T04:19:51;16.10;;;7.73;;
31282;SDS011;17915;52.540;13.604;2023-03-01T04:22:16;16.43;;;6.90;;
31282;SDS011;17915;52.540;13.604;2023-03-01T04:27:08;18.85;;;7.32;;
31282;SDS011;17915;52.540;13.604;2023-03-01T04:29:34;17.15;;;6.93;;
31282;SDS011;17915;52.540;13.604;2023-03-01T04:31:59;15.23;;;8.17;;
31282;SDS011;17915;52.540;13.604;2023-03-01T04:34:25;23.33;;;9.50;;
31282;SDS011;17915;52.540;13.604;2023-03-01T04:36:51;12.00;;;7.05;;
31282;SDS011;17915;52.540;13.604;2023-03-01T04:39:17;23.08;;;8.57;;
31282;SDS011;17915;52.540;13.604;2023-03-01T04:41:42;14.87;;;8.47;;
31282;SDS011;17915;52.540;13.604;2023-03-01T04:44:08;26.67;;;7.53;;
31282;SDS011;17915;52.540;13.604;2023-03-01T04:46:34;13.48;;;7.88;;
31282;SDS011;17915;52.540;13.604;2023-03-01T04:49:00;10.63;;;7.53;;
31282;SDS011;17915;52.540;13.604;2023-03-01T04:51:25;13.63;;;7.57;;
31282;SDS011;17915;52.540;13.604;2023-03-01T04:53:50;16.63;;;8.30;;
31282;SDS011;17915;52.540;13.604;2023-03-01T04:56:16;12.47;;;7.53;;
31282;SDS011;17915;52.540;13.604;2023-03-01T04:58:45;16.15;;;9.13;;
31282;SDS011;17915;52.540;13.604;2023-03-01T05:01:15;15.68;;;7.97;;
31282;SDS011;17915;52.540;13.604;2023-03-01T05:03:42;16.90;;;8.43;;
31282;SDS011;17915;52.540;13.604;2023-03-01T05:06:08;14.77;;;8.60;;
31282;SDS011;17915;52.540;13.604;2023-03-01T05:08:34;22.90;;;9.47;;
31282;SDS011;17915;52.540;13.604;2023-03-01T05:11:02;21.98;;;8.88;;
31282;SDS011;17915;52.540;13.604;2023-03-01T05:13:27;17.10;;;8.45;;
31282;SDS011;17915;52.540;13.604;2023-03-01T05:15:54;14.75;;;8.90;;
31282;SDS011;17915;52.540;13.604;2023-03-01T05:18:21;13.50;;;7.78;;
31282;SDS011;17915;52.540;13.604;2023-03-01T05:20:51;15.82;;;9.15;;
31282;SDS011;17915;52.540;13.604;2023-03-01T05:23:21;13.50;;;7.57;;
31282;SDS011;17915;52.540;13.604;2023-03-01T05:25:47;17.45;;;7.72;;
31282;SDS011;17915;52.540;13.604;2023-03-01T05:28:12;14.97;;;8.50;;
31282;SDS011;17915;52.540;13.604;2023-03-01T05:30:38;17.58;;;7.97;;
31282;SDS011;17915;52.540;13.604;2023-03-01T05:33:07;17.70;;;9.18;;
31282;SDS011;17915;52.540;13.604;2023-03-01T05:35:38;19.77;;;10.00;;
31282;SDS011;17915;52.540;13.604;2023-03-01T05:38:05;19.35;;;8.88;;
31282;SDS011;17915;52.540;13.604;2023-03-01T05:40:32;14.10;;;8.37;;
31282;SDS011;17915;52.540;13.604;2023-03-01T05:42:58;20.30;;;9.35;;
31282;SDS011;17915;52.540;13.604;2023-03-01T05:45:24;15.07;;;10.43;;
31282;SDS011;17915;52.540;13.604;2023-03-01T05:47:50;14.98;;;10.23;;
31282;SDS011;17915;52.540;13.604;2023-03-01T05:50:17;23.90;;;9.53;;
31282;SDS011;17915;52.540;13.604;2023-03-01T05:52:48;24.85;;;9.25;;
31282;SDS011;17915;52.540;13.604;2023-03-01T05:55:16;16.38;;;9.23;;
31282;SDS011;17915;52.540;13.604;2023-03-01T05:57:43;17.60;;;10.70;;
31282;SDS011;17915;52.540;13.604;2023-03-01T06:00:09;20.07;;;9.90;;
31282;SDS011;17915;52.540;13.604;2023-03-01T06:02:36;19.35;;;8.15;;
31282;SDS011;17915;52.540;13.604;2023-03-01T06:05:01;18.07;;;9.27;;
31282;SDS011;17915;52.540;13.604;2023-03-01T06:07:27;20.25;;;9.27;;
31282;SDS011;17915;52.540;13.604;2023-03-01T06:09:53;18.42;;;9.88;;
31282;SDS011;17915;52.540;13.604;2023-03-01T06:12:18;19.70;;;11.57;;
31282;SDS011;17915;52.540;13.604;2023-03-01T06:14:44;23.00;;;11.17;;
31282;SDS011;17915;52.540;13.604;2023-03-01T06:17:11;20.85;;;8.88;;
31282;SDS011;17915;52.540;13.604;2023-03-01T06:19:36;20.20;;;9.50;;
31282;SDS011;17915;52.540;13.604;2023-03-01T06:22:01;17.53;;;9.10;;
31282;SDS011;17915;52.540;13.604;2023-03-01T06:24:27;22.27;;;10.93;;
31282;SDS011;17915;52.540;13.604;2023-03-01T06:29:19;17.70;;;9.43;;
31282;SDS011;17915;52.540;13.604;2023-03-01T06:31:44;27.10;;;11.40;;
31282;SDS011;17915;52.540;13.604;2023-03-01T06:34:10;14.77;;;9.73;;
31282;SDS011;17915;52.540;13.604;2023-03-01T06:36:38;24.20;;;10.75;;
31282;SDS011;17915;52.540;13.604;2023-03-01T06:39:04;21.27;;;10.97;;
31282;SDS011;17915;52.540;13.604;2023-03-01T06:41:30;22.17;;;10.98;;
31282;SDS011;17915;52.540;13.604;2023-03-01T06:43:56;22.40;;;12.43;;
31282;SDS011;17915;52.540;13.604;2023-03-01T06:46:21;21.90;;;8.97;;
31282;SDS011;17915;52.540;13.604;2023-03-01T06:48:47;26.83;;;9.73;;
31282;SDS011;17915;52.540;13.604;2023-03-01T06:51:12;39.33;;;11.90;;
31282;SDS011;17915;52.540;13.604;2023-03-01T06:53:37;22.47;;;9.37;;
31282;SDS011;17915;52.540;13.604;2023-03-01T06:56:03;47.47;;;10.30;;
31282;SDS011;17915;52.540;13.604;2023-03-01T06:58:28;36.03;;;9.82;;
31282;SDS011;17915;52.540;13.604;2023-03-01T07:00:54;23.00;;;9.33;;
31282;SDS011;17915;52.540;13.604;2023-03-01T07:03:19;29.00;;;11.23;;
31282;SDS011;17915;52.540;13.604;2023-03-01T07:05:45;26.23;;;8.80;;
31282;SDS011;17915;52.540;13.604;2023-03-01T07:08:10;40.80;;;11.43;;
31282;SDS011;17915;52.540;13.604;2023-03-01T07:10:36;16.03;;;7.90;;
31282;SDS011;17915;52.540;13.604;2023-03-01T07:13:01;28.00;;;9.73;;
31282;SDS011;17915;52.540;13.604;2023-03-01T07:15:27;23.83;;;9.30;;
31282;SDS011;17915;52.540;13.604;2023-03-01T07:17:52;19.65;;;11.98;;
31282;SDS011;17915;52.540;13.604;2023-03-01T07:20:18;27.80;;;9.17;;
31282;SDS011;17915;52.540;13.604;2023-03-01T07:22:47;20.25;;;10.70;;
31282;SDS011;17915;52.540;13.604;2023-03-01T07:25:13;20.42;;;10.30;;
31282;SDS011;17915;52.540;13.604;2023-03-01T07:27:38;25.00;;;10.30;;
31282;SDS011;17915;52.540;13.604;2023-03-01T07:30:04;30.43;;;10.97;;
31282;SDS011;17915;52.540;13.604;2023-03-01T07:32:30;30.55;;;10.45;;
31282;SDS011;17915;52.540;13.604;2023-03-01T07:34:55;26.10;;;9.93;;
31282;SDS011;17915;52.540;13.604;2023-03-01T07:37:20;17.57;;;9.47;;
31282;SDS011;17915;52.540;13.604;2023-03-01T07:39:46;29.50;;;9.17;;
31282;SDS011;17915;52.540;13.604;2023-03-01T07:42:11;25.30;;;10.70;;
31282;SDS011;17915;52.540;13.604;2023-03-01T07:44:37;25.90;;;9.77;;
31282;SDS011;17915;52.540;13.604;2023-03-01T07:47:03;24.27;;;10.77;;
31282;SDS011;17915;52.540;13.604;2023-03-01T07:49:28;18.55;;;9.52;;
31282;SDS011;17915;52.540;13.604;2023-03-01T07:51:54;27.80;;;12.90;;
31282;SDS011;17915;52.540;13.604;2023-03-01T07:54:19;21.73;;;9.53;;
31282;SDS011;17915;52.540;13.604;2023-03-01T07:56:45;18.37;;;10.03;;
31282;SDS011;17915;52.540;13.604;2023-03-01T07:59:10;19.73;;;8.97;;
31282;SDS011;17915;52.540;13.604;2023-03-01T08:01:36;14.80;;;7.57;;
31282;SDS011;17915;52.540;13.604;2023-03-01T08:04:01;22.10;;;10.90;;
31282;SDS011;17915;52.540;13.604;2023-03-01T08:06:27;8.67;;;6.43;;
31282;SDS011;17915;52.540;13.604;2023-03-01T08:08:52;16.33;;;7.47;;
31282;SDS011;17915;52.540;13.604;2023-03-01T08:11:20;18.27;;;7.75;;
31282;SDS011;17915;52.540;13.604;2023-03-01T08:13:47;9.80;;;7.82;;
31282;SDS011;17915;52.540;13.604;2023-03-01T08:16:13;14.50;;;5.82;;
31282;SDS011;17915;52.540;13.604;2023-03-01T08:18:40;10.30;;;5.85;;
31282;SDS011;17915;52.540;13.604;2023-03-01T08:21:10;22.55;;;8.45;;
31282;SDS011;17915;52.540;13.604;2023-03-01T08:23:40;16.33;;;6.82;;
31282;SDS011;17915;52.540;13.604;2023-03-01T08:28:35;11.85;;;7.85;;
31282;SDS011;17915;52.540;13.604;2023-03-01T08:31:01;15.47;;;6.37;;
31282;SDS011;17915;52.540;13.604;2023-03-01T08:33:27;14.43;;;6.10;;
31282;SDS011;17915;52.540;13.604;2023-03-01T08:35:52;13.77;;;7.73;;
31282;SDS011;17915;52.540;13.604;2023-03-01T08:38:18;13.60;;;5.47;;
31282;SDS011;17915;52.540;13.604;2023-03-01T08:40:43;14.57;;;5.97;;
31282;SDS011;17915;52.540;13.604;2023-03-01T08:43:08;10.50;;;6.87;;
31282;SDS011;17915;52.540;13.604;2023-03-01T08:45:34;12.87;;;7.53;;
31282;SDS011;17915;52.540;13.604;2023-03-01T08:47:59;13.23;;;6.70;;
31282;SDS011;17915;52.540;13.604;2023-03-01T08:50:25;15.13;;;5.83;;
31282;SDS011;17915;52.540;13.604;2023-03-01T08:52:50;10.27;;;6.27;;
31282;SDS011;17915;52.540;13.604;2023-03-01T08:55:16;12.03;;;6.03;;
31282;SDS011;17915;52.540;13.604;2023-03-01T08:57:42;17.23;;;5.95;;
31282;SDS011;17915;52.540;13.604;2023-03-01T09:00:08;11.40;;;5.10;;
31282;SDS011;17915;52.540;13.604;2023-03-01T09:05:00;6.85;;;5.13;;
31282;SDS011;17915;52.540;13.604;2023-03-01T09:07:26;6.60;;;5.60;;
31282;SDS011;17915;52.540;13.604;2023-03-01T09:09:53;11.35;;;5.38;;
31282;SDS011;17915;52.540;13.604;2023-03-01T09:12:19;17.48;;;7.75;;
31282;SDS011;17915;52.540;13.604;2023-03-01T09:14:44;22.23;;;7.45;;
31282;SDS011;17915;52.540;13.604;2023-03-01T09:17:10;13.60;;;5.43;;
31282;SDS011;17915;52.540;13.604;2023-03-01T09:19:35;24.57;;;9.60;;
31282;SDS011;17915;52.540;13.604;2023-03-01T09:22:02;16.10;;;5.90;;
31282;SDS011;17915;52.540;13.604;2023-03-01T09:24:28;22.13;;;6.15;;
31282;SDS011;17915;52.540;13.604;2023-03-01T09:26:54;9.67;;;6.23;;
31282;SDS011;17915;52.540;13.604;2023-03-01T09:29:20;8.30;;;3.97;;
31282;SDS011;17915;52.540;13.604;2023-03-01T09:31:46;10.53;;;4.17;;
31282;SDS011;17915;52.540;13.604;2023-03-01T09:34:11;4.87;;;3.50;;
31282;SDS011;17915;52.540;13.604;2023-03-01T09:36:38;6.68;;;3.80;;
31282;SDS011;17915;52.540;13.604;2023-03-01T09:39:04;8.57;;;5.07;;
31282;SDS011;17915;52.540;13.604;2023-03-01T09:41:44;10.75;;;5.82;;
31282;SDS011;17915;52.540;13.604;2023-03-01T09:47:12;8.35;;;3.45;;
31282;SDS011;17915;52.540;13.604;2023-03-01T09:49:43;8.80;;;4.28;;
31282;SDS011;17915;52.540;13.604;2023-03-01T09:55:00;15.02;;;3.33;;
31282;SDS011;17915;52.540;13.604;2023-03-01T09:57:36;3.33;;;2.60;;
31282;SDS011;17915;52.540;13.604;2023-03-01T10:02:52;5.57;;;3.13;;
31282;SDS011;17915;52.540;13.604;2023-03-01T10:13:00;10.18;;;4.43;;
31282;SDS011;17915;52.540;13.604;2023-03-01T10:15:34;11.20;;;5.88;;
31282;SDS011;17915;52.540;13.604;2023-03-01T10:18:06;4.40;;;4.00;;
31282;SDS011;17915;52.540;13.604;2023-03-01T10:20:52;3.88;;;2.55;;
31282;SDS011;17915;52.540;13.604;2023-03-01T10:23:25;4.65;;;4.15;;
31282;SDS011;17915;52.540;13.604;2023-03-01T10:31:47;12.43;;;4.38;;
31282;SDS011;17915;52.540;13.604;2023-03-01T10:34:36;11.20;;;3.63;;
31282;SDS011;17915;52.540;13.604;2023-03-01T10:37:19;12.90;;;5.50;;
31282;SDS011;17915;52.540;13.604;2023-03-01T10:42:46;7.72;;;5.00;;
31282;SDS011;17915;52.540;13.604;2023-03-01T10:48:13;8.35;;;3.72;;
31282;SDS011;17915;52.540;13.604;2023-03-01T10:50:40;9.88;;;3.60;;
31282;SDS011;17915;52.540;13.604;2023-03-01T10:53:23;3.75;;;3.40;;
31282;SDS011;17915;52.540;13.604;2023-03-01T10:56:07;5.95;;;3.05;;
31282;SDS011;17915;52.540;13.604;2023-03-01T10:58:35;7.55;;;3.30;;
31282;SDS011;17915;52.540;13.604;2023-03-01T11:01:03;5.85;;;2.80;;
31282;SDS011;17915;52.540;13.604;2023-03-01T11:14:15;3.97;;;3.10;;
31282;SDS011;17915;52.540;13.604;2023-03-01T11:16:47;7.20;;;2.78;;
31282;SDS011;17915;52.540;13.604;2023-03-01T11:19:15;8.95;;;3.22;;
31282;SDS011;17915;52.540;13.604;2023-03-01T11:21:47;5.10;;;2.65;;
31282;SDS011;17915;52.540;13.604;2023-03-01T11:27:00;3.92;;;3.42;;
31282;SDS011;17915;52.540;13.604;2023-03-01T11:29:41;9.43;;;3.22;;
31282;SDS011;17915;52.540;13.604;2023-03-01T11:32:09;11.55;;;3.05;;
31282;SDS011;17915;52.540;13.604;2023-03-01T11:37:29;8.07;;;3.27;;
31282;SDS011;17915;52.540;13.604;2023-03-01T11:45:06;2.50;;;2.30;;
31282;SDS011;17915;52.540;13.604;2023-03-01T11:56:02;7.53;;;2.97;;
31282;SDS011;17915;52.540;13.604;2023-03-01T12:01:14;3.05;;;2.75;;
31282;SDS011;17915;52.540;13.604;2023-03-01T12:12:32;3.22;;;2.80;;
31282;SDS011;17915;52.540;13.604;2023-03-01T12:31:03;9.05;;;3.33;;
31282;SDS011;17915;52.540;13.604;2023-03-01T12:44:51;5.17;;;3.17;;
31282;SDS011;17915;52.540;13.604;2023-03-01T12:47:27;7.63;;;3.90;;
31282;SDS011;17915;52.540;13.604;2023-03-01T12:50:11;2.95;;;2.70;;
31282;SDS011;17915;52.540;13.604;2023-03-01T12:52:47;4.60;;;3.17;;
31282;SDS011;17915;52.540;13.604;2023-03-01T13:11:44;4.35;;;3.15;;
31282;SDS011;17915;52.540;13.604;2023-03-01T13:16:52;3.88;;;3.58;;
31282;SDS011;17915;52.540;13.604;2023-03-01T13:19:25;3.78;;;3.00;;
31282;SDS011;17915;52.540;13.604;2023-03-01T13:21:54;3.65;;;2.63;;
31282;SDS011;17915;52.540;13.604;2023-03-01T13:24:27;5.25;;;4.07;;
31282;SDS011;17915;52.540;13.604;2023-03-01T13:29:46;5.53;;;4.28;;
31282;SDS011;17915;52.540;13.604;2023-03-01T13:34:55;3.03;;;2.67;;
31282;SDS011;17915;52.540;13.604;2023-03-01T13:37:25;5.93;;;3.28;;
31282;SDS011;17915;52.540;13.604;2023-03-01T13:40:03;3.20;;;3.00;;
31282;SDS011;17915;52.540;13.604;2023-03-01T13:42:42;8.80;;;3.13;;
31282;SDS011;17915;52.540;13.604;2023-03-01T13:48:01;5.15;;;3.13;;
31282;SDS011;17915;52.540;13.604;2023-03-01T13:50:29;2.88;;;2.50;;
31282;SDS011;17915;52.540;13.604;2023-03-01T13:53:02;4.75;;;2.58;;
31282;SDS011;17915;52.540;13.604;2023-03-01T13:55:38;2.85;;;2.45;;
31282;SDS011;17915;52.540;13.604;2023-03-01T14:00:41;2.88;;;2.60;;
31282;SDS011;17915;52.540;13.604;2023-03-01T14:03:17;3.20;;;2.90;;
31282;SDS011;17915;52.540;13.604;2023-03-01T14:08:32;3.10;;;2.42;;
31282;SDS011;17915;52.540;13.604;2023-03-01T14:11:08;3.05;;;2.50;;
31282;SDS011;17915;52.540;13.604;2023-03-01T14:19:25;5.30;;;2.53;;
31282;SDS011;17915;52.540;13.604;2023-03-01T14:24:57;3.20;;;2.35;;
31282;SDS011;17915;52.540;13.604;2023-03-01T14:27:30;2.42;;;2.33;;
31282;SDS011;17915;52.540;13.604;2023-03-01T14:32:40;4.35;;;2.17;;
31282;SDS011;17915;52.540;13.604;2023-03-01T14:35:19;2.47;;;2.27;;
31282;SDS011;17915;52.540;13.604;2023-03-01T14:37:46;2.60;;;2.40;;
31282;SDS011;17915;52.540;13.604;2023-03-01T14:40:24;2.97;;;1.95;;
31282;SDS011;17915;52.540;13.604;2023-03-01T14:42:51;3.17;;;1.90;;
31282;SDS011;17915;52.540;13.604;2023-03-01T14:45:17;2.63;;;2.30;;
31282;SDS011;17915;52.540;13.604;2023-03-01T14:47:43;3.77;;;2.17;;
31282;SDS011;17915;52.540;13.604;2023-03-01T14:50:13;3.95;;;2.92;;
31282;SDS011;17915;52.540;13.604;2023-03-01T14:52:42;2.92;;;2.17;;
31282;SDS011;17915;52.540;13.604;2023-03-01T14:55:15;2.80;;;2.00;;
31282;SDS011;17915;52.540;13.604;2023-03-01T14:57:49;2.10;;;1.65;;
31282;SDS011;17915;52.540;13.604;2023-03-01T15:00:17;4.53;;;3.35;;
31282;SDS011;17915;52.540;13.604;2023-03-01T15:02:45;3.53;;;2.25;;
31282;SDS011;17915;52.540;13.604;2023-03-01T15:05:13;1.80;;;1.70;;
31282;SDS011;17915;52.540;13.604;2023-03-01T15:10:05;2.00;;;1.90;;
31282;SDS011;17915;52.540;13.604;2023-03-01T15:12:36;1.70;;;1.60;;
31282;SDS011;17915;52.540;13.604;2023-03-01T15:15:48;2.85;;;2.55;;
31282;SDS011;17915;52.540;13.604;2023-03-01T15:17:54;2.30;;;2.03;;
31282;SDS011;17915;52.540;13.604;2023-03-01T15:20:22;3.53;;;2.28;;
31282;SDS011;17915;52.540;13.604;2023-03-01T15:22:50;3.20;;;2.45;;
31282;SDS011;17915;52.540;13.604;2023-03-01T15:25:20;4.47;;;1.98;;
31282;SDS011;17915;52.540;13.604;2023-03-01T15:27:48;3.55;;;2.03;;
31282;SDS011;17915;52.540;13.604;2023-03-01T15:30:18;4.35;;;3.92;;
31282;SDS011;17915;52.540;13.604;2023-03-01T15:32:46;2.35;;;2.15;;
31282;SDS011;17915;52.540;13.604;2023-03-01T15:38:26;5.13;;;2.30;;
31282;SDS011;17915;52.540;13.604;2023-03-01T15:41:20;2.15;;;1.73;;
31282;SDS011;17915;52.540;13.604;2023-03-01T15:43:50;3.78;;;2.45;;
31282;SDS011;17915;52.540;13.604;2023-03-01T15:46:31;8.13;;;3.05;;
31282;SDS011;17915;52.540;13.604;2023-03-01T15:49:00;5.43;;;2.53;;
31282;SDS011;17915;52.540;13.604;2023-03-01T15:51:36;3.80;;;2.28;;
31282;SDS011;17915;52.540;13.604;2023-03-01T15:54:06;2.33;;;2.13;;
31282;SDS011;17915;52.540;13.604;2023-03-01T15:56:40;4.05;;;2.88;;
31282;SDS011;17915;52.540;13.604;2023-03-01T15:59:06;3.07;;;2.80;;
31282;SDS011;17915;52.540;13.604;2023-03-01T16:01:36;3.60;;;3.17;;
31282;SDS011;17915;52.540;13.604;2023-03-01T16:04:02;7.17;;;2.83;;
31282;SDS011;17915;52.540;13.604;2023-03-01T16:06:27;4.77;;;2.57;;
31282;SDS011;17915;52.540;13.604;2023-03-01T16:08:52;4.87;;;2.73;;
31282;SDS011;17915;52.540;13.604;2023-03-01T16:11:19;4.37;;;3.00;;
31282;SDS011;17915;52.540;13.604;2023-03-01T16:16:11;3.80;;;2.28;;
31282;SDS011;17915;52.540;13.604;2023-03-01T16:18:39;7.20;;;2.97;;
31282;SDS011;17915;52.540;13.604;2023-03-01T16:21:06;7.47;;;3.65;;
31282;SDS011;17915;52.540;13.604;2023-03-01T16:23:31;5.50;;;3.53;;
31282;SDS011;17915;52.540;13.604;2023-03-01T16:26:00;8.63;;;3.47;;
31282;SDS011;17915;52.540;13.604;2023-03-01T16:28:25;2.53;;;2.30;;
31282;SDS011;17915;52.540;13.604;2023-03-01T16:30:51;3.10;;;2.60;;
31282;SDS011;17915;52.540;13.604;2023-03-01T16:33:16;4.63;;;2.97;;
31282;SDS011;17915;52.540;13.604;2023-03-01T16:35:42;4.17;;;2.93;;
31282;SDS011;17915;52.540;13.604;2023-03-01T16:38:08;6.13;;;3.30;;
31282;SDS011;17915;52.540;13.604;2023-03-01T16:40:34;3.05;;;2.80;;
31282;SDS011;17915;52.540;13.604;2023-03-01T16:43:00;4.23;;;3.77;;
31282;SDS011;17915;52.540;13.604;2023-03-01T16:45:27;5.90;;;2.42;;
31282;SDS011;17915;52.540;13.604;2023-03-01T16:47:53;4.40;;;2.88;;
31282;SDS011;17915;52.540;13.604;2023-03-01T16:50:18;5.27;;;3.70;;
31282;SDS011;17915;52.540;13.604;2023-03-01T16:52:44;4.57;;;3.63;;
31282;SDS011;17915;52.540;13.604;2023-03-01T16:55:09;4.57;;;3.13;;
31282;SDS011;17915;52.540;13.604;2023-03-01T16:57:36;8.27;;;3.50;;
31282;SDS011;17915;52.540;13.604;2023-03-01T17:04:55;4.55;;;3.45;;
31282;SDS011;17915;52.540;13.604;2023-03-01T17:07:20;8.03;;;3.93;;
31282;SDS011;17915;52.540;13.604;2023-03-01T17:09:46;8.63;;;4.47;;
31282;SDS011;17915;52.540;13.604;2023-03-01T17:12:12;7.60;;;4.27;;
31282;SDS011;17915;52.540;13.604;2023-03-01T17:14:38;9.82;;;4.30;;
31282;SDS011;17915;52.540;13.604;2023-03-01T17:17:06;4.68;;;3.63;;
31282;SDS011;17915;52.540;13.604;2023-03-01T17:19:32;4.20;;;3.80;;
31282;SDS011;17915;52.540;13.604;2023-03-01T17:21:57;7.13;;;3.40;;
31282;SDS011;17915;52.540;13.604;2023-03-01T17:24:22;7.67;;;3.20;;
31282;SDS011;17915;52.540;13.604;2023-03-01T17:26:48;7.43;;;3.60;;
31282;SDS011;17915;52.540;13.604;2023-03-01T17:29:13;8.60;;;4.10;;
31282;SDS011;17915;52.540;13.604;2023-03-01T17:31:38;10.63;;;5.50;;